Time;durP1;ratioP1;P1;durP2;ratioP2;P2;SDS_P1;SDS_P2;PMS_P1;PMS_P2;Temp;Humidity;BMP_temperature;BMP_pressure;BME280_temperature;BME280_humidity;BME280_pressure;Samples;Min_cycle;Max_cycle;Signal;HPM_P1;HPM_P2
2022/10/11 00:01:40;;;;;;;10.10;4.70;;;;;10.40;98129.00;;;;108994;1271;41600;-62
2022/10/11 00:04:09;;;;;;;11.90;4.80;;;;;10.38;98128.40;;;;109014;1270;41129;-62
2022/10/11 00:06:42;;;;;;;10.50;5.10;;;;;10.30;98121.00;;;;109061;1266;41159;-62
2022/10/11 00:09:12;;;;;;;10.50;4.90;;;;;10.30;98122.40;;;;108897;1270;41141;-61
2022/10/11 00:11:42;;;;;;;10.30;4.70;;;;;10.30;98113.40;;;;108894;1271;41153;-62
2022/10/11 00:14:12;;;;;;;9.80;4.50;;;;;10.28;98120.00;;;;108629;1271;41613;-61
2022/10/11 00:16:43;;;;;;;8.70;3.90;;;;;10.24;98121.60;;;;108646;1272;41252;-62
2022/10/11 00:19:13;;;;;;;9.50;4.40;;;;;10.26;98115.40;;;;109021;1269;41394;-62
2022/10/11 00:21:43;;;;;;;9.10;4.50;;;;;10.30;98117.20;;;;109049;1269;41150;-61
2022/10/11 00:24:14;;;;;;;;;;;;;10.30;98120.20;;;;108936;1269;41160;-63
2022/10/11 00:26:44;;;;;;;10.50;4.40;;;;;10.30;98120.20;;;;108905;1270;42499;-62
2022/10/11 00:29:15;;;;;;;10.40;4.50;;;;;10.22;98119.20;;;;108834;1271;41146;-62
2022/10/11 00:31:45;;;;;;;9.10;4.30;;;;;10.22;98120.40;;;;109132;1271;41148;-62
2022/10/11 00:34:16;;;;;;;9.60;4.10;;;;;10.20;98125.40;;;;108937;1268;41861;-59
2022/10/11 00:36:47;;;;;;;9.30;4.30;;;;;10.20;98119.00;;;;108925;1266;41167;-60
2022/10/11 00:39:17;;;;;;;11.90;4.80;;;;;10.20;98121.40;;;;108966;1268;41611;-60
2022/10/11 00:41:48;;;;;;;;;;;;;10.20;98115.00;;;;109019;1271;41158;-61
2022/10/11 00:44:24;;;;;;;8.90;4.00;;;;;10.10;98117.40;;;;108997;1266;42295;-60
2022/10/11 00:47:06;;;;;;;10.00;4.00;;;;;10.00;98113.20;;;;108988;1269;41161;-62
2022/10/11 00:49:43;;;;;;;9.70;4.50;;;;;9.92;98111.40;;;;108907;1270;41175;-62
2022/10/11 00:52:28;;;;;;;10.20;3.80;;;;;9.90;98111.80;;;;109067;1270;41240;-61
2022/10/11 00:55:04;;;;;;;10.60;3.90;;;;;9.90;98111.20;;;;108981;1271;42079;-62
2022/10/11 00:57:37;;;;;;;10.00;3.90;;;;;9.90;98109.00;;;;108748;1271;41837;-62
2022/10/11 01:00:09;;;;;;;12.00;5.00;;;;;9.90;98110.40;;;;108971;1270;41158;-61
2022/10/11 01:02:39;;;;;;;9.40;4.30;;;;;9.90;98106.80;;;;109086;1270;41151;-61
2022/10/11 01:05:14;;;;;;;9.40;4.30;;;;;9.86;98106.80;;;;108624;1270;41986;-61
2022/10/11 01:07:59;;;;;;;11.30;4.10;;;;;9.80;98105.60;;;;108627;1270;41156;-64
2022/10/11 01:10:29;;;;;;;;;;;;;9.80;98103.00;;;;108665;1271;41153;-61
2022/10/11 01:13:05;;;;;;;9.10;3.70;;;;;9.80;98103.20;;;;108918;1271;42419;-63
2022/10/11 01:16:26;;;;;;;8.90;4.20;;;;;9.80;98097.40;;;;108985;1257;41386;-62
2022/10/11 01:19:37;;;;;;;11.80;4.90;;;;;9.80;98097.40;;;;108698;1271;42849;-62
2022/10/11 01:22:32;;;;;;;10.60;4.70;;;;;9.74;98091.80;;;;108945;1271;41697;-62
2022/10/11 01:25:23;;;;;;;11.20;5.00;;;;;9.72;98088.80;;;;108946;1270;41246;-62
2022/10/11 01:28:12;;;;;;;13.30;5.50;;;;;9.80;98085.80;;;;108977;1270;41149;-62
2022/10/11 01:30:43;;;;;;;11.70;5.30;;;;;9.76;98090.20;;;;109020;1271;41228;-61
2022/10/11 01:33:20;;;;;;;10.20;4.70;;;;;9.74;98090.40;;;;108943;1270;41591;-62
2022/10/11 01:35:54;;;;;;;9.90;4.20;;;;;9.80;98092.60;;;;109034;1271;41336;-62
2022/10/11 01:38:48;;;;;;;10.00;4.20;;;;;9.80;98090.00;;;;108965;1270;41243;-62
2022/10/11 01:41:23;;;;;;;8.30;3.90;;;;;9.80;98087.20;;;;108980;1271;41243;-62
2022/10/11 01:43:59;;;;;;;10.80;4.00;;;;;9.80;98085.60;;;;108978;1270;41248;-63
2022/10/11 01:46:30;;;;;;;10.00;4.40;;;;;9.78;98085.80;;;;109098;1269;41153;-63
2022/10/11 01:49:03;;;;;;;9.90;4.90;;;;;9.70;98083.60;;;;108974;1271;42648;-62
2022/10/11 01:51:40;;;;;;;11.90;4.30;;;;;9.60;98079.20;;;;108997;1271;42392;-63
2022/10/11 01:54:41;;;;;;;11.00;5.30;;;;;9.60;98077.60;;;;108995;1267;41631;-62
2022/10/11 01:57:43;;;;;;;10.70;4.60;;;;;9.50;98075.40;;;;108815;1271;41435;-61
2022/10/11 02:00:14;;;;;;;10.10;4.70;;;;;9.50;98072.40;;;;108864;1270;41166;-62
2022/10/11 02:03:11;;;;;;;13.40;5.30;;;;;9.40;98078.40;;;;109047;1266;41188;-62
2022/10/11 02:05:58;;;;;;;9.80;5.00;;;;;9.40;98077.20;;;;109030;1271;41233;-62
2022/10/11 02:09:06;;;;;;;10.20;5.20;;;;;9.30;98075.40;;;;108953;1267;41894;-62
2022/10/11 02:11:36;;;;;;;13.60;5.00;;;;;9.30;98073.00;;;;108978;1270;42143;-61
2022/10/11 02:14:10;;;;;;;9.70;4.70;;;;;9.20;98072.00;;;;108880;1271;41235;-62
2022/10/11 02:16:48;;;;;;;10.20;4.40;;;;;9.20;98069.00;;;;108976;1271;41690;-62
2022/10/11 02:19:22;;;;;;;11.30;4.40;;;;;9.20;98068.00;;;;108917;1265;41139;-62
2022/10/11 02:21:56;;;;;;;11.00;5.00;;;;;9.20;98071.20;;;;108946;1271;41138;-62
2022/10/11 02:24:33;;;;;;;11.50;4.90;;;;;9.10;98071.00;;;;108618;1270;41638;-62
2022/10/11 02:27:04;;;;;;;10.90;5.10;;;;;9.10;98068.20;;;;108972;1269;41982;-64
2022/10/11 02:29:37;;;;;;;11.30;5.30;;;;;9.10;98066.00;;;;109012;1266;41147;-63
2022/10/11 02:32:07;;;;;;;11.10;5.40;;;;;9.04;98067.20;;;;109047;1271;41723;-62
2022/10/11 02:34:51;;;;;;;9.60;4.80;;;;;9.00;98068.40;;;;108997;1271;41623;-62
2022/10/11 02:37:35;;;;;;;11.30;4.90;;;;;9.00;98069.20;;;;108915;1270;41638;-62
2022/10/11 02:40:14;;;;;;;11.50;5.00;;;;;9.00;98060.00;;;;108688;1270;41750;-61
2022/10/11 02:42:50;;;;;;;9.50;4.60;;;;;8.98;98065.00;;;;108912;1271;41159;-62
2022/10/11 02:45:26;;;;;;;11.30;5.50;;;;;8.90;98063.20;;;;108808;1271;41229;-62
2022/10/11 02:47:57;;;;;;;9.70;4.20;;;;;8.90;98066.40;;;;108899;1268;41608;-61
2022/10/11 02:50:27;;;;;;;11.50;5.90;;;;;8.90;98064.80;;;;108943;1271;41160;-62
2022/10/11 02:52:56;;;;;;;8.70;4.30;;;;;8.80;98063.00;;;;108897;1266;41193;-62
2022/10/11 02:55:26;;;;;;;9.20;3.90;;;;;8.80;98065.60;;;;108933;1257;41138;-62
2022/10/11 02:57:57;;;;;;;9.90;4.30;;;;;8.80;98068.60;;;;108888;1270;41603;-62
2022/10/11 03:00:29;;;;;;;8.90;4.00;;;;;8.80;98069.20;;;;108877;1271;41169;-62
2022/10/11 03:02:58;;;;;;;9.40;3.90;;;;;8.80;98070.00;;;;108982;1271;41623;-62
2022/10/11 03:05:28;;;;;;;8.60;4.00;;;;;8.72;98069.60;;;;109035;1269;41240;-62
2022/10/11 03:07:57;;;;;;;9.60;4.10;;;;;8.70;98071.80;;;;109044;1259;41136;-62
2022/10/11 03:10:29;;;;;;;8.10;3.90;;;;;8.70;98068.80;;;;108964;1271;41624;-62
2022/10/11 03:12:59;;;;;;;9.00;3.90;;;;;8.70;98063.40;;;;108902;1271;41157;-61
2022/10/11 03:15:29;;;;;;;8.20;3.60;;;;;8.64;98070.20;;;;108930;1270;41237;-62
2022/10/11 03:18:00;;;;;;;9.00;3.80;;;;;8.60;98070.80;;;;108989;1269;41233;-62
2022/10/11 03:20:30;;;;;;;10.20;3.90;;;;;8.60;98073.60;;;;109088;1271;41232;-62
2022/10/11 03:23:04;;;;;;;8.70;3.60;;;;;8.60;98069.00;;;;109104;1256;41158;-61
2022/10/11 03:25:34;;;;;;;7.60;3.40;;;;;8.60;98072.40;;;;109000;1271;41246;-62
2022/10/11 03:28:04;;;;;;;9.40;3.50;;;;;8.56;98072.80;;;;108957;1271;41158;-63
2022/10/11 03:30:34;;;;;;;8.40;3.90;;;;;8.52;98067.80;;;;109062;1270;41292;-62
2022/10/11 03:33:04;;;;;;;;;;;;;8.50;98062.80;;;;108998;1261;41252;-61
2022/10/11 03:35:34;;;;;;;9.70;3.70;;;;;8.50;98061.20;;;;109062;1271;41392;-63
2022/10/11 03:38:04;;;;;;;9.70;3.70;;;;;8.40;98059.80;;;;109045;1269;41168;-63
2022/10/11 03:40:38;;;;;;;8.80;3.90;;;;;8.40;98061.00;;;;108919;1270;41127;-63
2022/10/11 03:43:09;;;;;;;7.80;3.80;;;;;8.40;98060.20;;;;109041;1256;41154;-62
2022/10/11 03:45:41;;;;;;;10.00;5.00;;;;;8.40;98058.60;;;;108938;1270;42478;-62
2022/10/11 03:48:11;;;;;;;11.50;4.90;;;;;8.40;98059.60;;;;108956;1272;42232;-62
2022/10/11 03:50:40;;;;;;;10.90;4.80;;;;;8.38;98059.40;;;;108766;1270;41154;-62
2022/10/11 03:53:10;;;;;;;10.80;4.80;;;;;8.30;98059.80;;;;108683;1271;41176;-62
2022/10/11 03:55:40;;;;;;;8.60;4.10;;;;;8.30;98060.80;;;;108983;1271;41178;-62
2022/10/11 03:58:09;;;;;;;10.50;4.00;;;;;8.30;98059.20;;;;109046;1269;41159;-62
2022/10/11 04:00:38;;;;;;;10.60;4.90;;;;;8.30;98063.80;;;;109093;1266;41140;-61
2022/10/11 04:03:07;;;;;;;10.80;5.20;;;;;8.30;98066.20;;;;109027;1265;41191;-62
2022/10/11 04:05:37;;;;;;;10.20;5.40;;;;;8.20;98064.40;;;;109094;1257;41207;-63
2022/10/11 04:08:06;;;;;;;11.50;5.30;;;;;8.20;98061.80;;;;108939;1270;41217;-63
2022/10/11 04:10:40;;;;;;;12.40;5.60;;;;;8.10;98060.00;;;;109094;1263;41230;-64
2022/10/11 04:13:10;;;;;;;9.90;4.60;;;;;8.10;98062.40;;;;108982;1271;42085;-62
2022/10/11 04:15:42;;;;;;;9.90;4.70;;;;;8.08;98065.80;;;;108631;1266;41334;-62
2022/10/11 04:18:12;;;;;;;15.50;4.30;;;;;8.00;98059.20;;;;108816;1271;42536;-63
2022/10/11 04:20:41;;;;;;;8.90;4.20;;;;;8.00;98061.40;;;;108867;1271;41151;-63
2022/10/11 04:23:11;;;;;;;8.40;3.90;;;;;8.00;98062.00;;;;109048;1271;41765;-63
2022/10/11 04:25:41;;;;;;;9.90;4.20;;;;;8.00;98057.40;;;;108888;1267;41133;-62
2022/10/11 04:28:10;;;;;;;11.90;4.80;;;;;8.00;98057.60;;;;109037;1270;41154;-62
2022/10/11 04:30:40;;;;;;;9.70;4.20;;;;;8.00;98053.80;;;;108937;1269;41699;-62
2022/10/11 04:33:10;;;;;;;10.20;4.00;;;;;8.00;98053.80;;;;108905;1271;41659;-62
2022/10/11 04:35:40;;;;;;;10.80;5.00;;;;;8.00;98054.60;;;;109034;1266;42267;-62
2022/10/11 04:38:10;;;;;;;10.30;5.00;;;;;7.94;98060.20;;;;109104;1266;41157;-62
2022/10/11 04:40:39;;;;;;;10.70;5.30;;;;;7.90;98062.80;;;;108981;1271;41228;-63
2022/10/11 04:43:08;;;;;;;10.50;5.00;;;;;7.90;98066.80;;;;109188;1271;41401;-60
2022/10/11 04:45:37;;;;;;;9.30;4.40;;;;;7.90;98069.20;;;;108978;1272;41123;-61
2022/10/11 04:48:07;;;;;;;11.00;4.00;;;;;7.90;98067.20;;;;108993;1263;41287;-61
2022/10/11 04:50:36;;;;;;;9.40;3.70;;;;;7.90;98068.20;;;;109071;1271;42182;-62
2022/10/11 04:53:08;;;;;;;8.30;3.80;;;;;7.94;98066.60;;;;109181;1267;41158;-62
2022/10/11 04:55:37;;;;;;;8.30;3.80;;;;;8.00;98070.20;;;;109108;1263;40745;-61
2022/10/11 04:58:07;;;;;;;7.60;3.70;;;;;8.00;98071.20;;;;109063;1263;41151;-61
2022/10/11 05:00:37;;;;;;;9.10;3.60;;;;;8.10;98076.00;;;;109008;1271;41583;-60
2022/10/11 05:03:11;;;;;;;11.10;4.50;;;;;8.10;98081.40;;;;109031;1270;41143;-61
2022/10/11 05:05:40;;;;;;;9.10;4.20;;;;;8.20;98082.20;;;;109018;1271;41180;-60
2022/10/11 05:08:08;;;;;;;8.40;3.70;;;;;8.20;98086.40;;;;108951;1264;41681;-60
2022/10/11 05:10:37;;;;;;;8.30;3.70;;;;;8.30;98085.60;;;;108977;1270;41144;-61
2022/10/11 05:13:07;;;;;;;9.50;4.20;;;;;8.30;98079.60;;;;109054;1256;41628;-61
2022/10/11 05:15:35;;;;;;;8.60;3.40;;;;;8.40;98083.80;;;;109195;1261;41139;-60
2022/10/11 05:18:04;;;;;;;10.20;4.20;;;;;8.48;98084.00;;;;109023;1271;41148;-61
2022/10/11 05:20:34;;;;;;;8.50;3.60;;;;;8.50;98077.80;;;;109005;1270;41246;-61
2022/10/11 05:23:02;;;;;;;10.20;4.10;;;;;8.60;98074.80;;;;108956;1261;41244;-61
2022/10/11 05:25:31;;;;;;;13.90;4.00;;;;;8.74;98082.40;;;;109207;1257;41146;-62
2022/10/11 05:28:00;;;;;;;11.70;4.00;;;;;8.90;98084.20;;;;109154;1266;41476;-60
2022/10/11 05:30:29;;;;;;;8.10;3.60;;;;;9.00;98087.40;;;;108918;1267;41140;-61
2022/10/11 05:32:58;;;;;;;8.00;3.60;;;;;9.20;98083.60;;;;109080;1266;41197;-61
2022/10/11 05:35:28;;;;;;;8.30;3.70;;;;;9.30;98086.00;;;;108785;1271;353882;-61
2022/10/11 05:37:56;;;;;;;9.30;4.40;;;;;9.40;98089.60;;;;109052;1267;41167;-61
2022/10/11 05:40:25;;;;;;;10.90;5.30;;;;;9.46;98089.40;;;;109122;1270;41184;-60
2022/10/11 05:42:54;;;;;;;14.90;6.50;;;;;9.56;98087.40;;;;109069;1269;41256;-61
2022/10/11 05:45:23;;;;;;;15.20;7.30;;;;;9.60;98099.00;;;;108883;1272;41168;-62
2022/10/11 05:47:52;;;;;;;15.70;7.50;;;;;9.68;98105.80;;;;109204;1264;41244;-61
2022/10/11 05:50:21;;;;;;;22.90;7.90;;;;;9.80;98103.60;;;;108941;1262;41376;-61
2022/10/11 05:52:51;;;;;;;18.00;10.10;;;;;9.88;98100.40;;;;108951;1270;41229;-62
2022/10/11 05:55:20;;;;;;;16.80;8.60;;;;;9.90;98100.20;;;;108919;1266;41389;-61
2022/10/11 05:57:54;;;;;;;18.20;8.20;;;;;9.98;98099.00;;;;108943;1262;42451;-62
2022/10/11 06:00:24;;;;;;;16.50;7.20;;;;;9.90;98104.20;;;;108889;1263;41401;-61
2022/10/11 06:02:54;;;;;;;13.10;6.50;;;;;10.00;98102.40;;;;108927;1269;41149;-60
2022/10/11 06:05:23;;;;;;;13.00;6.00;;;;;10.02;98101.40;;;;108900;1270;41149;-61
2022/10/11 06:07:54;;;;;;;13.90;6.80;;;;;10.10;98103.80;;;;108997;1267;41613;-60
2022/10/11 06:10:24;;;;;;;17.90;8.20;;;;;10.20;98100.20;;;;108763;1257;41158;-61
2022/10/11 06:12:54;;;;;;;14.90;7.60;;;;;10.20;98104.20;;;;109098;1262;41185;-62
2022/10/11 06:15:24;;;;;;;18.10;8.10;;;;;10.24;98096.40;;;;108985;1268;41521;-61
2022/10/11 06:17:54;;;;;;;;;;;;;10.30;98096.80;;;;108786;1270;41903;-61
2022/10/11 06:20:25;;;;;;;11.70;6.50;;;;;10.40;98097.20;;;;108954;1269;41159;-61
2022/10/11 06:22:54;;;;;;;12.50;6.60;;;;;10.60;98097.80;;;;109212;1270;41156;-61
2022/10/11 06:25:23;;;;;;;12.50;6.10;;;;;10.86;98098.60;;;;109222;1266;41429;-61
2022/10/11 06:27:54;;;;;;;12.30;6.80;;;;;11.10;98100.80;;;;109017;1271;41626;-61
2022/10/11 06:30:23;;;;;;;25.00;8.10;;;;;11.38;98101.80;;;;109014;1273;41362;-61
2022/10/11 06:32:51;;;;;;;15.30;7.50;;;;;11.50;98105.00;;;;109003;1271;41145;-61
2022/10/11 06:35:22;;;;;;;12.50;6.10;;;;;11.70;98107.20;;;;109023;1270;41502;-61
2022/10/11 06:37:53;;;;;;;16.50;6.40;;;;;12.00;98110.20;;;;109086;1271;41186;-62
2022/10/11 06:40:21;;;;;;;12.20;6.20;;;;;12.20;98106.20;;;;108987;1267;41587;-61
2022/10/11 06:42:50;;;;;;;14.90;6.30;;;;;12.38;98112.00;;;;108990;1271;41141;-61
2022/10/11 06:45:19;;;;;;;13.20;6.50;;;;;12.50;98108.20;;;;109074;1260;41318;-61
2022/10/11 06:47:47;;;;;;;14.50;6.70;;;;;12.58;98110.20;;;;108959;1271;41291;-61
2022/10/11 06:50:16;;;;;;;13.00;6.30;;;;;12.62;98104.20;;;;108981;1269;41192;-61
2022/10/11 06:52:57;;;;;;;;;;;;;12.72;98110.60;;;;108900;1274;42516;-61
2022/10/11 06:55:26;;;;;;;14.20;7.20;;;;;12.80;98113.00;;;;108923;1265;41695;-60
2022/10/11 06:57:56;;;;;;;14.90;6.90;;;;;12.80;98113.20;;;;109034;1270;41262;-62
2022/10/11 07:00:24;;;;;;;12.00;5.60;;;;;12.80;98116.40;;;;109148;1259;41227;-62
2022/10/11 07:02:53;;;;;;;12.00;6.20;;;;;12.80;98115.80;;;;109055;1263;41646;-62
2022/10/11 07:05:21;;;;;;;12.30;5.30;;;;;12.80;98118.80;;;;109059;1262;41498;-63
2022/10/11 07:07:50;;;;;;;13.20;5.40;;;;;12.80;98111.60;;;;109049;1273;41148;-61
2022/10/11 07:10:19;;;;;;;12.90;5.00;;;;;12.80;98110.20;;;;108982;1271;42528;-61
2022/10/11 07:12:48;;;;;;;11.30;5.20;;;;;12.98;98107.40;;;;109137;1273;41137;-62
2022/10/11 07:15:17;;;;;;;10.70;4.60;;;;;13.10;98107.80;;;;108989;1272;42134;-62
2022/10/11 07:17:46;;;;;;;12.60;5.10;;;;;13.38;98105.80;;;;109201;1261;41695;-61
2022/10/11 07:20:15;;;;;;;12.10;5.30;;;;;13.66;98102.00;;;;109064;1272;41325;-61
2022/10/11 07:22:44;;;;;;;13.20;5.70;;;;;13.90;98102.60;;;;108951;1273;41149;-61
2022/10/11 07:25:13;;;;;;;13.10;4.90;;;;;14.00;98101.40;;;;108609;1267;41140;-61
2022/10/11 07:27:42;;;;;;;10.70;5.00;;;;;14.14;98105.00;;;;108902;1262;41740;-61
2022/10/11 07:30:11;;;;;;;10.00;4.50;;;;;14.30;98106.80;;;;109049;1273;41868;-61
2022/10/11 07:32:39;;;;;;;11.50;4.90;;;;;14.36;98107.80;;;;109024;1257;41328;-61
2022/10/11 07:35:08;;;;;;;12.80;4.50;;;;;14.40;98110.80;;;;109001;1272;41158;-61
2022/10/11 07:37:37;;;;;;;14.00;4.10;;;;;14.50;98107.00;;;;109026;1273;41618;-61
2022/10/11 07:40:09;;;;;;;9.90;4.80;;;;;14.60;98101.20;;;;109067;1273;42165;-61
2022/10/11 07:42:38;;;;;;;9.90;4.30;;;;;14.80;98103.20;;;;108983;1273;41941;-61
2022/10/11 07:45:07;;;;;;;9.40;4.10;;;;;14.90;98098.80;;;;109041;1269;41141;-62
2022/10/11 07:47:36;;;;;;;11.40;4.70;;;;;15.06;98100.80;;;;109064;1260;41143;-62
2022/10/11 07:50:06;;;;;;;13.50;4.50;;;;;15.10;98099.00;;;;109122;1260;41608;-62
2022/10/11 07:52:35;;;;;;;12.40;4.40;;;;;15.20;98098.20;;;;109123;1270;41624;-62
2022/10/11 07:55:05;;;;;;;8.50;4.40;;;;;15.30;98098.60;;;;109046;1273;42006;-62
2022/10/11 07:57:34;;;;;;;11.90;4.40;;;;;15.40;98099.20;;;;109030;1273;41232;-62
2022/10/11 08:00:03;;;;;;;10.30;4.70;;;;;15.50;98099.40;;;;108980;1269;41350;-62
2022/10/11 08:02:39;;;;;;;8.30;3.80;;;;;15.60;98096.20;;;;108997;1273;41137;-62
2022/10/11 08:05:07;;;;;;;10.50;3.70;;;;;15.70;98097.40;;;;109064;1271;41603;-61
2022/10/11 08:07:36;;;;;;;9.80;4.50;;;;;15.80;98098.00;;;;108953;1271;41386;-61
2022/10/11 08:10:06;;;;;;;11.40;4.10;;;;;16.00;98102.40;;;;108900;1274;41295;-61
2022/10/11 08:12:35;;;;;;;12.10;4.00;;;;;16.10;98097.00;;;;108863;1273;41890;-62
2022/10/11 08:15:05;;;;;;;16.60;5.00;;;;;16.20;98104.00;;;;109029;1271;41303;-61
2022/10/11 08:17:38;;;;;;;11.20;5.00;;;;;16.10;98097.80;;;;109012;1257;41196;-62
2022/10/11 08:20:08;;;;;;;10.40;4.10;;;;;16.00;98097.60;;;;109025;1270;41475;-62
2022/10/11 08:22:38;;;;;;;13.20;4.20;;;;;16.00;98103.00;;;;109098;1262;41581;-61
2022/10/11 08:25:07;;;;;;;10.80;4.00;;;;;16.14;98105.40;;;;109128;1272;42058;-61
2022/10/11 08:27:36;;;;;;;9.60;3.90;;;;;16.38;98096.40;;;;109043;1262;41137;-61
2022/10/11 08:30:05;;;;;;;9.00;3.90;;;;;16.60;98098.60;;;;108993;1261;41233;-61
2022/10/11 08:32:34;;;;;;;9.20;3.70;;;;;16.88;98098.60;;;;109034;1274;42314;-61
2022/10/11 08:35:03;;;;;;;9.20;4.20;;;;;17.44;98100.20;;;;108997;1264;41690;-61
2022/10/11 08:37:32;;;;;;;8.70;3.90;;;;;18.08;98090.00;;;;109076;1270;41140;-62
2022/10/11 08:40:02;;;;;;;11.00;3.90;;;;;18.84;98092.40;;;;109019;1273;41214;-62
2022/10/11 08:42:34;;;;;;;11.20;3.70;;;;;19.56;98090.40;;;;108982;1261;41165;-62
2022/10/11 08:45:08;;;;;;;8.50;3.70;;;;;20.12;98091.80;;;;109223;1272;41149;-62
2022/10/11 08:47:40;;;;;;;9.40;3.10;;;;;20.44;98088.60;;;;109014;1266;41475;-62
2022/10/11 08:50:18;;;;;;;7.30;3.00;;;;;20.84;98084.40;;;;108940;1261;42401;-61
2022/10/11 08:52:58;;;;;;;8.50;2.90;;;;;21.30;98083.80;;;;109071;1273;41158;-61
2022/10/11 08:55:49;;;;;;;7.90;3.50;;;;;21.66;98069.80;;;;108990;1273;41244;-61
2022/10/11 08:58:24;;;;;;;8.00;3.50;;;;;21.94;98069.00;;;;108893;1260;41140;-61
2022/10/11 09:00:54;;;;;;;8.80;3.80;;;;;22.24;98067.20;;;;109074;1268;41515;-61
2022/10/11 09:03:36;;;;;;;7.70;3.10;;;;;22.78;98065.20;;;;108775;1274;42106;-61
2022/10/11 09:06:56;;;;;;;9.50;4.30;;;;;23.28;98060.40;;;;109010;1273;41993;-61
2022/10/11 09:10:06;;;;;;;8.90;3.30;;;;;23.50;98059.20;;;;108611;1267;41146;-60
2022/10/11 09:12:49;;;;;;;7.70;3.00;;;;;23.94;98057.00;;;;109030;1273;41599;-61
2022/10/11 09:15:33;;;;;;;9.00;3.50;;;;;24.50;98049.80;;;;109139;1271;41139;-61
2022/10/11 09:18:21;;;;;;;9.00;3.20;;;;;25.08;98047.60;;;;108996;1272;41606;-61
2022/10/11 09:20:50;;;;;;;10.30;3.70;;;;;25.36;98047.80;;;;109070;1274;41511;-61
2022/10/11 09:23:34;;;;;;;11.00;3.70;;;;;25.94;98041.80;;;;109096;1273;41619;-60
2022/10/11 09:26:05;;;;;;;7.70;3.40;;;;;26.20;98042.80;;;;108930;1273;41229;-61
2022/10/11 09:28:57;;;;;;;;;;;;;26.42;98042.80;;;;109002;1273;41172;-61
2022/10/11 09:31:30;;;;;;;8.60;3.90;;;;;26.70;98044.20;;;;108926;1273;41333;-62
2022/10/11 09:34:07;;;;;;;10.60;3.40;;;;;26.56;98051.00;;;;108968;1270;41353;-62
2022/10/11 09:36:48;;;;;;;9.20;3.30;;;;;25.98;98052.20;;;;109119;1269;41179;-61
2022/10/11 09:39:31;;;;;;;7.30;3.30;;;;;25.30;98048.20;;;;108991;1273;41215;-62
2022/10/11 09:42:08;;;;;;;8.50;3.10;;;;;24.84;98051.20;;;;108991;1273;42400;-62
2022/10/11 09:44:45;;;;;;;7.60;3.00;;;;;25.26;98045.00;;;;109067;1271;42541;-62
2022/10/11 09:47:25;;;;;;;12.70;3.70;;;;;26.20;98044.60;;;;108969;1273;41172;-62
2022/10/11 09:50:02;;;;;;;13.90;3.80;;;;;27.10;98047.00;;;;109117;1269;41388;-62
2022/10/11 09:52:32;;;;;;;13.40;3.70;;;;;27.22;98044.60;;;;109058;1269;41231;-62
2022/10/11 09:55:01;;;;;;;9.70;3.70;;;;;27.10;98042.40;;;;109023;1265;41190;-63
2022/10/11 09:57:34;;;;;;;8.90;3.70;;;;;26.70;98045.00;;;;109129;1269;41156;-62
2022/10/11 10:00:17;;;;;;;10.50;3.70;;;;;26.00;98042.80;;;;109289;1268;41174;-62
2022/10/11 10:02:48;;;;;;;7.90;3.60;;;;;25.76;98050.00;;;;109258;1264;41232;-63
2022/10/11 10:05:22;;;;;;;9.00;3.60;;;;;25.30;98043.20;;;;108987;1273;41163;-62
2022/10/11 10:08:09;;;;;;;10.70;3.90;;;;;25.00;98045.60;;;;108844;1269;41946;-62
2022/10/11 10:10:47;;;;;;;9.90;4.40;;;;;23.92;98052.00;;;;109108;1269;41283;-62
2022/10/11 10:13:19;;;;;;;11.20;4.40;;;;;23.10;98057.20;;;;109018;1268;42396;-62
2022/10/11 10:15:50;;;;;;;10.80;5.00;;;;;22.90;98064.20;;;;109046;1261;41183;-62
2022/10/11 10:18:57;;;;;;;14.40;5.20;;;;;22.58;98058.60;;;;108952;1271;41239;-62
2022/10/11 10:21:32;;;;;;;15.00;5.10;;;;;21.76;98059.60;;;;109153;1264;41137;-62
2022/10/11 10:24:05;;;;;;;11.50;5.00;;;;;21.30;98061.00;;;;109050;1265;41595;-62
2022/10/11 10:26:34;;;;;;;10.30;4.70;;;;;21.26;98063.80;;;;109034;1260;41246;-62
2022/10/11 10:29:08;;;;;;;16.00;6.90;;;;;21.10;98060.60;;;;108989;1269;41951;-61
2022/10/11 10:31:47;;;;;;;11.70;5.80;;;;;20.34;98064.60;;;;109111;1257;41271;-62
2022/10/11 10:34:37;;;;;;;13.60;6.00;;;;;19.88;98066.20;;;;109114;1261;41245;-61
2022/10/11 10:37:28;;;;;;;10.60;5.20;;;;;19.50;98063.60;;;;109002;1257;41610;-62
2022/10/11 10:40:03;;;;;;;12.90;6.40;;;;;19.32;98060.80;;;;109098;1261;41159;-61
2022/10/11 10:42:31;;;;;;;13.20;5.80;;;;;18.98;98062.60;;;;109006;1266;41929;-62
2022/10/11 10:45:00;;;;;;;16.50;6.30;;;;;18.86;98060.20;;;;108852;1259;41143;-61
2022/10/11 10:48:00;;;;;;;15.00;7.10;;;;;18.90;98063.20;;;;109020;1269;41153;-63
2022/10/11 10:50:51;;;;;;;12.70;6.70;;;;;19.00;98060.40;;;;108972;1254;42435;-61
2022/10/11 10:53:42;;;;;;;13.80;7.10;;;;;18.76;98064.20;;;;109041;1269;40743;-61
2022/10/11 10:56:34;;;;;;;13.40;6.80;;;;;18.70;98060.20;;;;108721;1270;41242;-62
2022/10/11 10:59:12;;;;;;;20.40;8.60;;;;;18.70;98061.20;;;;108877;1268;42135;-61
2022/10/11 11:01:52;;;;;;;14.30;6.60;;;;;18.50;98063.00;;;;108888;1271;41242;-62
2022/10/11 11:04:32;;;;;;;15.80;6.80;;;;;18.30;98064.00;;;;108979;1269;41893;-62
2022/10/11 11:07:24;;;;;;;16.50;8.00;;;;;18.30;98062.40;;;;108985;1269;41247;-63
2022/10/11 11:10:01;;;;;;;13.60;7.00;;;;;18.30;98061.20;;;;108927;1269;41147;-63
2022/10/11 11:12:53;;;;;;;16.80;6.00;;;;;18.50;98058.60;;;;109043;1269;41269;-62
2022/10/11 11:15:33;;;;;;;16.50;6.40;;;;;18.80;98060.40;;;;109021;1269;41709;-61
2022/10/11 11:18:28;;;;;;;12.30;6.70;;;;;19.10;98049.20;;;;108901;1265;41152;-62
2022/10/11 11:21:34;;;;;;;12.20;5.90;;;;;19.14;98051.20;;;;108992;1263;41812;-61
2022/10/11 11:24:28;;;;;;;12.90;5.90;;;;;19.22;98052.00;;;;109133;1253;40738;-61
2022/10/11 11:27:26;;;;;;;14.20;6.30;;;;;19.40;98051.00;;;;109009;1261;41603;-61
2022/10/11 11:30:08;;;;;;;14.50;6.20;;;;;19.20;98043.60;;;;108946;1260;42074;-62
2022/10/11 11:32:43;;;;;;;14.40;5.20;;;;;19.02;98045.20;;;;109064;1269;41379;-62
2022/10/11 11:35:18;;;;;;;11.10;5.40;;;;;19.44;98046.40;;;;109102;1264;41594;-60
2022/10/11 11:37:49;;;;;;;11.60;4.70;;;;;19.92;98042.60;;;;109138;1258;40723;-61
2022/10/11 11:40:37;;;;;;;10.30;4.60;;;;;20.40;98041.80;;;;109102;1267;42513;-61
2022/10/11 11:43:17;;;;;;;9.70;4.00;;;;;20.70;98038.60;;;;109230;1256;41239;-61
2022/10/11 11:45:49;;;;;;;9.00;4.10;;;;;20.90;98035.40;;;;109252;1269;41225;-62
2022/10/11 11:48:23;;;;;;;8.90;3.50;;;;;21.00;98029.80;;;;108917;1271;41204;-61
2022/10/11 11:50:58;;;;;;;10.40;4.10;;;;;21.10;98026.40;;;;108892;1263;41699;-61
2022/10/11 11:53:50;;;;;;;8.70;3.70;;;;;21.16;98020.40;;;;109052;1269;41136;-62
2022/10/11 11:56:40;;;;;;;10.70;4.50;;;;;21.20;98021.00;;;;109092;1253;41602;-61
2022/10/11 11:59:18;;;;;;;11.50;4.10;;;;;21.20;98018.60;;;;109074;1269;41473;-61
2022/10/11 12:01:58;;;;;;;9.40;4.10;;;;;21.30;98024.60;;;;109113;1269;42217;-62
2022/10/11 12:04:39;;;;;;;8.70;4.00;;;;;21.48;98018.00;;;;108973;1269;41156;-62
2022/10/11 12:07:14;;;;;;;11.20;4.20;;;;;21.60;98014.60;;;;109073;1269;40859;-62
2022/10/11 12:09:49;;;;;;;8.30;3.70;;;;;21.70;98014.00;;;;109020;1269;41948;-61
2022/10/11 12:12:36;;;;;;;11.80;4.70;;;;;21.80;98013.00;;;;108998;1269;41238;-61
2022/10/11 12:15:07;;;;;;;8.80;3.70;;;;;21.80;98010.00;;;;109002;1269;41890;-60
2022/10/11 12:17:58;;;;;;;11.90;3.90;;;;;21.90;98011.80;;;;109026;1269;42966;-61
2022/10/11 12:20:40;;;;;;;9.60;4.00;;;;;22.10;98006.40;;;;108997;1269;41790;-60
2022/10/11 12:23:29;;;;;;;9.20;3.70;;;;;22.30;98005.00;;;;108869;1269;41160;-62
2022/10/11 12:26:29;;;;;;;7.90;3.30;;;;;22.66;97997.40;;;;108983;1268;41412;-61
2022/10/11 12:29:04;;;;;;;8.60;3.60;;;;;23.42;97989.40;;;;109135;1269;41229;-62
2022/10/11 12:31:35;;;;;;;11.20;4.10;;;;;23.98;97981.60;;;;109048;1261;42400;-61
2022/10/11 12:34:08;;;;;;;7.10;3.10;;;;;24.44;97976.80;;;;109076;1261;41442;-61
2022/10/11 12:36:47;;;;;;;9.30;3.40;;;;;25.10;97970.20;;;;108966;1265;41611;-61
2022/10/11 12:39:18;;;;;;;7.30;3.10;;;;;25.90;97970.00;;;;109083;1269;41157;-60
2022/10/11 12:41:53;;;;;;;8.80;3.50;;;;;26.74;97968.80;;;;109027;1268;41159;-61
2022/10/11 12:44:27;;;;;;;8.10;3.30;;;;;27.30;97966.00;;;;109020;1266;40838;-61
2022/10/11 12:46:59;;;;;;;7.40;3.10;;;;;27.92;97963.40;;;;108975;1266;41156;-60